Time;durP1;ratioP1;P1;durP2;ratioP2;P2;SDS_P1;SDS_P2;PMS_P1;PMS_P2;Temp;Humidity;BMP_temperature;BMP_pressure;BME280_temperature;BME280_humidity;BME280_pressure;Samples;Min_cycle;Max_cycle;Signal;HPM_P1;HPM_P2
2022/06/14 00:01:15;;;;;;;13.32;3.15;;;;;;;;;;5113592;28;20120;-71
2022/06/14 00:03:42;;;;;;;14.02;3.38;;;11.90;99.90;;;;;;5113661;28;20078;-71
2022/06/14 00:06:22;;;;;;;15.00;3.63;;;12.80;99.90;;;;;;5113917;28;20101;-71
2022/06/14 00:08:48;;;;;;;13.90;3.55;;;;;;;;;;5113495;28;20075;-71
2022/06/14 00:11:20;;;;;;;13.25;3.28;;;12.70;99.70;;;;;;5096438;28;20495;-71
2022/06/14 00:13:46;;;;;;;17.42;3.20;;;;;;;;;;5096522;28;20496;-71
2022/06/14 00:16:14;;;;;;;18.20;2.95;;;13.70;99.90;;;;;;5096431;28;20078;-69
2022/06/14 00:18:40;;;;;;;12.45;2.97;;;;;;;;;;5113156;28;20046;-69
2022/06/14 00:21:06;;;;;;;13.82;2.90;;;12.50;99.90;;;;;;5096313;28;20044;-69
2022/06/14 00:23:33;;;;;;;12.38;3.00;;;12.60;99.60;;;;;;5113599;28;20507;-69
2022/06/14 00:26:00;;;;;;;14.38;2.67;;;12.50;99.80;;;;;;5113095;28;20043;-69
2022/06/14 00:28:28;;;;;;;14.45;2.65;;;12.30;99.90;;;;;;5113168;28;20043;-70
2022/06/14 00:30:58;;;;;;;13.32;3.20;;;12.50;99.80;;;;;;5112295;28;20048;-70
2022/06/14 00:33:24;;;;;;;11.68;2.80;;;;;;;;;;5113005;28;20036;-70
2022/06/14 00:35:58;;;;;;;11.73;3.10;;;12.70;99.80;;;;;;5112904;28;20039;-70
2022/06/14 00:38:25;;;;;;;11.15;2.90;;;;;;;;;;5113140;28;20040;-70
2022/06/14 00:40:54;;;;;;;11.88;2.70;;;12.60;99.90;;;;;;5095845;28;20036;-69
2022/06/14 00:43:21;;;;;;;13.55;2.90;;;;;;;;;;5113053;28;20054;-70
2022/06/14 00:45:48;;;;;;;12.95;2.90;;;13.30;99.90;;;;;;5112969;28;20482;-69
2022/06/14 00:48:31;;;;;;;13.68;3.20;;;12.20;99.90;;;;;;5113069;28;20039;-71
2022/06/14 00:51:16;;;;;;;13.77;2.50;;;12.40;99.90;;;;;;5112967;28;20051;-71
2022/06/14 00:54:07;;;;;;;11.45;2.85;;;12.10;99.90;;;;;;5112751;28;20050;-71
2022/06/14 00:56:42;;;;;;;16.33;3.13;;;;;;;;;;5095730;28;20047;-70
2022/06/14 00:59:17;;;;;;;9.00;2.45;;;12.00;99.90;;;;;;5112589;28;20074;-70
2022/06/14 01:01:44;;;;;;;21.63;4.35;;;;;;;;;;5112723;28;20046;-70
2022/06/14 01:04:21;;;;;;;12.30;2.70;;;12.00;99.60;;;;;;5095959;28;20067;-69
2022/06/14 01:06:52;;;;;;;14.25;3.20;;;11.80;99.50;;;;;;5112585;28;20062;-70
2022/06/14 01:09:42;;;;;;;10.43;2.73;;;11.80;99.90;;;;;;5112929;27;20039;-69
2022/06/14 01:12:13;;;;;;;11.65;2.80;;;;;;;;;;5115744;28;20406;-69
2022/06/14 01:15:01;;;;;;;13.35;2.60;;;11.70;99.90;;;;;;5115856;28;20035;-70
2022/06/14 01:17:30;;;;;;;16.38;3.40;;;12.00;99.90;;;;;;5115941;28;20501;-70
2022/06/14 01:19:57;;;;;;;13.40;2.88;;;13.00;99.90;;;;;;5115794;28;20046;-70
2022/06/14 01:22:25;;;;;;;14.15;3.15;;;11.90;99.90;;;;;;5098929;28;20399;-70
2022/06/14 01:24:52;;;;;;;14.05;2.88;;;;;;;;;;5116089;28;20053;-70
2022/06/14 01:27:20;;;;;;;11.77;2.95;;;12.10;99.90;;;;;;5115888;28;20031;-70
2022/06/14 01:29:49;;;;;;;9.70;3.20;;;;;;;;;;5098781;28;20050;-70
2022/06/14 01:32:18;;;;;;;10.57;2.58;;;11.70;99.90;;;;;;5115766;28;20491;-70
2022/06/14 01:34:51;;;;;;;14.68;2.88;;;11.80;99.90;;;;;;5116204;28;20035;-70
2022/06/14 01:37:17;;;;;;;11.73;2.53;;;12.80;99.90;;;;;;5115718;28;20051;-70
2022/06/14 01:39:43;;;;;;;14.15;2.85;;;;;;;;;;5115696;28;20042;-70
2022/06/14 01:42:22;;;;;;;9.65;2.58;;;11.60;99.90;;;;;;5116473;27;20066;-70
2022/06/14 01:45:02;;;;;;;11.88;2.88;;;;;;;;;;5119572;27;20042;-70
2022/06/14 01:47:53;;;;;;;24.33;3.15;;;12.00;99.90;;;;;;5119570;27;20043;-70
2022/06/14 01:53:55;;;;;;;13.50;2.60;;;11.60;99.90;;;;;;5119543;27;20039;-70
2022/06/14 01:56:45;;;;;;;11.93;2.45;;;11.50;99.90;;;;;;5119716;27;20035;-70
2022/06/14 01:59:38;;;;;;;12.63;3.13;;;11.60;99.90;;;;;;5119344;27;20060;-70
2022/06/14 02:02:09;;;;;;;10.38;2.80;;;11.60;99.90;;;;;;5119666;27;20081;-70
2022/06/14 02:05:00;;;;;;;11.40;2.53;;;;;;;;;;5119394;27;20082;-70
2022/06/14 02:07:56;;;;;;;13.10;3.53;;;11.80;99.90;;;;;;5119261;27;20078;-70
2022/06/14 02:10:22;;;;;;;8.20;2.67;;;;;;;;;;5118324;27;20059;-70
2022/06/14 02:12:54;;;;;;;14.32;3.00;;;;;;;;;;5119069;27;20495;-70
2022/06/14 02:15:48;;;;;;;10.57;3.25;;;11.60;99.90;;;;;;5119280;27;20058;-70
2022/06/14 02:18:34;;;;;;;12.40;3.13;;;11.40;99.90;;;;;;5118933;27;20043;-70
2022/06/14 02:21:16;;;;;;;16.00;3.30;;;;;;;;;;5118396;27;20523;-70
2022/06/14 02:23:46;;;;;;;10.73;3.10;;;11.60;99.90;;;;;;5119001;27;20042;-70
2022/06/14 02:26:29;;;;;;;8.43;2.80;;;11.40;99.90;;;;;;5119352;27;20070;-70
2022/06/14 02:29:03;;;;;;;10.23;2.67;;;11.40;99.90;;;;;;5102002;27;20075;-70
2022/06/14 02:31:34;;;;;;;8.35;2.55;;;11.50;99.90;;;;;;5118720;27;20074;-70
2022/06/14 02:34:22;;;;;;;13.82;3.20;;;11.50;99.90;;;;;;5101667;27;20044;-70
2022/06/14 02:36:53;;;;;;;11.85;3.00;;;11.30;99.90;;;;;;5118056;27;20078;-70
2022/06/14 02:39:23;;;;;;;12.85;3.05;;;;;;;;;;5118503;27;20088;-70
2022/06/14 02:42:02;;;;;;;10.88;3.58;;;;;;;;;;5118827;27;20101;-71
2022/06/14 02:44:33;;;;;;;11.52;3.28;;;11.40;99.90;;;;;;5118812;27;20115;-70
2022/06/14 02:47:22;;;;;;;9.38;2.78;;;11.40;99.90;;;;;;5118484;27;20070;-70
2022/06/14 02:49:52;;;;;;;11.55;3.17;;;;;;;;;;5118634;27;20100;-69
2022/06/14 02:52:21;;;;;;;9.43;2.88;;;;;;;;;;5118264;27;20031;-70
2022/06/14 02:55:17;;;;;;;14.63;3.17;;;11.30;99.90;;;;;;5100470;27;20126;-69
2022/06/14 02:57:58;;;;;;;9.90;2.78;;;;;;;;;;5118459;27;20046;-70
2022/06/14 03:00:28;;;;;;;10.23;3.10;;;;;;;;;;5101354;27;20043;-69
2022/06/14 03:03:15;;;;;;;8.50;3.05;;;11.30;99.90;;;;;;5118087;27;20039;-69
2022/06/14 03:05:48;;;;;;;13.30;2.97;;;11.60;99.90;;;;;;5118332;27;20062;-69
2022/06/14 03:08:24;;;;;;;;;;;11.40;99.90;;;;;;5101880;27;20046;-70
2022/06/14 03:10:50;;;;;;;6.80;2.90;;;;;;;;;;5114509;28;20276;-70
2022/06/14 03:13:28;;;;;;;11.32;3.30;;;11.30;99.90;;;;;;5114531;28;20040;-70
2022/06/14 03:16:12;;;;;;;10.75;3.28;;;11.20;99.90;;;;;;5114481;28;20040;-70
2022/06/14 03:19:15;;;;;;;9.73;3.25;;;11.30;99.90;;;;;;5114408;28;20042;-70
2022/06/14 03:21:46;;;;;;;10.45;3.20;;;;;;;;;;5098614;28;20047;-70
2022/06/14 03:24:28;;;;;;;10.57;3.00;;;11.20;99.90;;;;;;5114676;28;20047;-70
2022/06/14 03:27:03;;;;;;;12.13;3.60;;;;;;;;;;5114497;28;20051;-72
2022/06/14 03:29:45;;;;;;;10.95;3.13;;;11.50;99.90;;;;;;5097382;28;20044;-72
2022/06/14 03:32:18;;;;;;;11.43;3.20;;;11.30;99.90;;;;;;5114115;28;20054;-72
2022/06/14 03:34:48;;;;;;;10.57;3.05;;;;;;;;;;5114220;28;20114;-72
2022/06/14 03:37:15;;;;;;;15.93;3.53;;;;;;;;;;5114057;28;20040;-72
2022/06/14 03:39:51;;;;;;;9.63;3.13;;;11.40;99.90;;;;;;5114267;28;20036;-72
2022/06/14 03:42:17;;;;;;;9.27;3.00;;;;;;;;;;5113972;28;20046;-72
2022/06/14 03:44:43;;;;;;;7.80;3.00;;;;;;;;;;5113902;28;20043;-73
2022/06/14 03:47:09;;;;;;;20.13;3.95;;;;;;;;;;5113859;28;20047;-73
2022/06/14 03:49:36;;;;;;;14.13;3.35;;;11.20;99.90;;;;;;5113852;28;20483;-73
2022/06/14 03:52:20;;;;;;;5.82;3.45;;;11.00;99.90;;;;;;5096818;28;20044;-73
2022/06/14 03:55:01;;;;;;;10.38;4.05;;;11.10;99.90;;;;;;5096765;28;20039;-73
2022/06/14 03:57:48;;;;;;;14.68;3.33;;;11.10;99.90;;;;;;5114032;28;20047;-73
2022/06/14 04:00:33;;;;;;;9.35;3.08;;;;;;;;;;5113734;28;20047;-73
2022/06/14 04:03:11;;;;;;;8.73;3.22;;;11.10;99.90;;;;;;5113496;28;20043;-73
2022/06/14 04:06:01;;;;;;;8.85;3.03;;;11.20;99.90;;;;;;5113391;28;20039;-73
2022/06/14 04:08:35;;;;;;;11.00;3.90;;;;;;;;;;5113686;28;20434;-73
2022/06/14 04:11:09;;;;;;;12.27;3.88;;;11.30;99.90;;;;;;5113299;28;20404;-73
2022/06/14 04:13:45;;;;;;;12.68;3.33;;;11.10;99.90;;;;;;5113418;28;20043;-73
2022/06/14 04:16:17;;;;;;;9.13;3.70;;;11.10;99.90;;;;;;5113329;28;20067;-73
2022/06/14 04:19:00;;;;;;;9.20;3.58;;;11.50;99.90;;;;;;5113555;28;20122;-73
2022/06/14 04:21:38;;;;;;;12.80;4.13;;;11.20;99.90;;;;;;5113523;28;20075;-73
2022/06/14 04:24:08;;;;;;;12.48;4.53;;;11.20;99.90;;;;;;5113472;28;20391;-73
2022/06/14 04:26:40;;;;;;;10.07;4.47;;;11.20;99.90;;;;;;5113209;28;20039;-72
2022/06/14 04:29:48;;;;;;;12.68;3.90;;;11.40;99.90;;;;;;5113349;28;20039;-73
2022/06/14 04:32:26;;;;;;;12.30;3.58;;;11.30;99.90;;;;;;5100230;28;20048;-73
2022/06/14 04:35:03;;;;;;;17.33;4.05;;;11.70;99.90;;;;;;5113141;28;20074;-73
2022/06/14 04:37:34;;;;;;;19.40;5.10;;;11.60;99.90;;;;;;5113354;28;20036;-73
2022/06/14 04:40:21;;;;;;;19.83;5.05;;;;;;;;;;5113157;28;20543;-72
2022/06/14 04:43:03;;;;;;;12.18;4.90;;;11.70;99.90;;;;;;5113160;28;20112;-72
2022/06/14 04:45:41;;;;;;;18.77;4.80;;;11.80;99.90;;;;;;5113239;28;20096;-72
2022/06/14 04:48:23;;;;;;;13.13;4.68;;;;;;;;;;5113061;28;20104;-73
2022/06/14 04:50:55;;;;;;;15.73;4.80;;;11.80;99.90;;;;;;5113008;28;20543;-72
2022/06/14 04:53:35;;;;;;;13.05;4.82;;;11.80;99.90;;;;;;5112798;28;20043;-73
2022/06/14 04:56:07;;;;;;;13.20;4.32;;;12.00;99.90;;;;;;5112931;28;20044;-73
2022/06/14 04:58:52;;;;;;;15.70;5.35;;;12.00;99.90;;;;;;5095796;28;20044;-73
2022/06/14 05:01:29;;;;;;;13.90;4.45;;;12.00;99.90;;;;;;5095692;28;20044;-72
2022/06/14 05:04:03;;;;;;;13.20;4.38;;;12.20;99.90;;;;;;5112716;28;20051;-73
2022/06/14 05:06:44;;;;;;;14.77;4.82;;;12.10;99.90;;;;;;5095630;28;20123;-73
2022/06/14 05:09:16;;;;;;;10.23;4.28;;;12.20;99.90;;;;;;5112848;28;20054;-73
2022/06/14 05:11:45;;;;;;;;;;;12.40;99.90;;;;;;5112796;28;20496;-73
2022/06/14 05:14:23;;;;;;;10.35;4.07;;;12.50;99.90;;;;;;5095567;28;20371;-73
2022/06/14 05:16:56;;;;;;;13.30;3.60;;;;;;;;;;5113794;28;20043;-72
2022/06/14 05:19:46;;;;;;;16.98;4.35;;;12.70;99.90;;;;;;5119285;28;20046;-72
2022/06/14 05:22:30;;;;;;;14.20;4.03;;;12.50;99.90;;;;;;5119480;28;20116;-72
2022/06/14 05:24:57;;;;;;;12.18;3.40;;;;;;;;;;5119319;28;20045;-72
2022/06/14 05:27:43;;;;;;;10.23;3.88;;;12.80;99.90;;;;;;5119582;28;20035;-72
2022/06/14 05:30:25;;;;;;;14.27;3.85;;;;;;;;;;5119524;28;20391;-73
2022/06/14 05:33:23;;;;;;;12.00;3.35;;;12.90;99.90;;;;;;5119157;28;20046;-73
2022/06/14 05:35:49;;;;;;;12.30;3.50;;;;;;;;;;5102100;28;20036;-73
2022/06/14 05:38:36;;;;;;;14.90;3.47;;;;;;;;;;5119044;28;20036;-73
2022/06/14 05:41:07;;;;;;;10.82;3.42;;;13.00;99.90;;;;;;5101889;28;20047;-72
2022/06/14 05:43:39;;;;;;;14.55;3.60;;;13.00;99.90;;;;;;5119014;28;20392;-72
2022/06/14 05:46:31;;;;;;;15.68;3.40;;;14.00;99.90;;;;;;5119274;28;20170;-73
2022/06/14 05:49:08;;;;;;;5.72;3.00;;;13.70;99.90;;;;;;5118158;28;20062;-72
2022/06/14 05:51:43;;;;;;;10.98;2.40;;;13.40;99.90;;;;;;5118989;28;20047;-72
2022/06/14 05:54:34;;;;;;;9.18;2.60;;;13.30;99.90;;;;;;5119006;28;20123;-72
2022/06/14 05:57:26;;;;;;;6.72;2.33;;;13.60;99.90;;;;;;5118893;28;20124;-72
2022/06/14 06:00:00;;;;;;;8.13;2.47;;;13.50;99.90;;;;;;5118972;28;20039;-72
2022/06/14 06:02:38;;;;;;;8.43;2.30;;;;;;;;;;5119199;28;20048;-72
2022/06/14 06:05:22;;;;;;;9.82;2.75;;;13.90;99.90;;;;;;5118872;28;20043;-73
2022/06/14 06:07:51;;;;;;;7.35;2.38;;;;;;;;;;5102041;28;20454;-73
2022/06/14 06:10:20;;;;;;;7.90;2.88;;;;;;;;;;5101637;28;20059;-73
2022/06/14 06:12:50;;;;;;;9.70;2.58;;;;;;;;;;5119078;28;20059;-72
2022/06/14 06:15:25;;;;;;;11.15;3.22;;;13.80;99.90;;;;;;5118962;28;20108;-73
2022/06/14 06:17:54;;;;;;;10.00;2.92;;;;;;;;;;5118545;28;20047;-73
2022/06/14 06:20:34;;;;;;;11.15;3.10;;;14.20;99.90;;;;;;5118674;28;20036;-73
2022/06/14 06:23:10;;;;;;;5.97;2.97;;;;;;;;;;5118493;28;20043;-73
2022/06/14 06:25:41;;;;;;;6.80;2.47;;;14.20;99.90;;;;;;5118765;28;20487;-72
2022/06/14 06:28:17;;;;;;;8.93;3.10;;;14.10;99.90;;;;;;5117501;28;20043;-72
2022/06/14 06:31:04;;;;;;;11.45;3.10;;;14.10;99.90;;;;;;5115943;28;20399;-72
2022/06/14 06:33:34;;;;;;;14.07;3.10;;;14.20;99.90;;;;;;5115404;28;20066;-73
2022/06/14 06:36:32;;;;;;;9.27;2.78;;;14.30;99.90;;;;;;5115125;28;20079;-72
2022/06/14 06:39:04;;;;;;;11.75;2.92;;;14.40;99.80;;;;;;5115022;28;20051;-73
2022/06/14 06:41:54;;;;;;;9.35;2.65;;;14.30;99.90;;;;;;5115005;28;20100;-73
2022/06/14 06:44:50;;;;;;;7.80;2.92;;;;;;;;;;5115097;28;20043;-72
2022/06/14 06:47:24;;;;;;;8.43;3.13;;;14.40;99.40;;;;;;5093457;28;20146;-73
2022/06/14 06:50:01;;;;;;;5.18;2.65;;;14.60;99.80;;;;;;5114818;28;20099;-72
2022/06/14 06:52:32;;;;;;;7.45;2.90;;;;;;;;;;5114818;28;20058;-72
2022/06/14 06:55:04;;;;;;;11.25;3.00;;;;;;;;;;5114889;28;20054;-72
2022/06/14 06:57:33;;;;;;;5.75;2.65;;;14.80;99.20;;;;;;5115080;28;20043;-72
2022/06/14 07:00:02;;;;;;;7.07;2.72;;;;;;;;;;5114694;28;20063;-73
2022/06/14 07:02:38;;;;;;;11.18;3.10;;;14.60;99.70;;;;;;5115002;28;20066;-73
2022/06/14 07:05:05;;;;;;;9.07;3.13;;;;;;;;;;5115040;28;20431;-73
2022/06/14 07:07:49;;;;;;;8.18;2.72;;;14.90;98.80;;;;;;5097785;28;20081;-73
2022/06/14 07:10:24;;;;;;;8.65;2.78;;;15.00;99.40;;;;;;5114474;28;20055;-73
2022/06/14 07:13:11;;;;;;;7.75;2.40;;;15.00;99.20;;;;;;5114500;28;20562;-73
2022/06/14 07:16:02;;;;;;;6.32;2.53;;;15.10;98.80;;;;;;5114779;28;20077;-72
2022/06/14 07:18:31;;;;;;;6.30;2.40;;;;;;;;;;5100985;28;20051;-72
2022/06/14 07:20:57;;;;;;;11.32;2.92;;;;;;;;;;5114469;28;20043;-72
2022/06/14 07:23:37;;;;;;;8.77;2.88;;;15.30;98.90;;;;;;5097405;28;20043;-72
2022/06/14 07:26:16;;;;;;;6.40;2.00;;;;;;;;;;5114163;28;20051;-72
2022/06/14 07:29:03;;;;;;;13.50;2.70;;;15.40;98.00;;;;;;5114175;28;20551;-72
2022/06/14 07:31:44;;;;;;;8.02;2.72;;;15.40;98.70;;;;;;5114221;28;20031;-72
2022/06/14 07:34:10;;;;;;;8.95;2.67;;;;;;;;;;5113984;28;20039;-73
2022/06/14 07:36:45;;;;;;;5.93;2.60;;;14.80;99.90;;;;;;5113994;28;20051;-73
2022/06/14 07:39:20;;;;;;;9.57;2.53;;;15.60;98.30;;;;;;5114170;28;20383;-72
2022/06/14 07:41:46;;;;;;;6.95;2.58;;;;;;;;;;5113641;28;20511;-72
2022/06/14 07:44:40;;;;;;;9.77;2.88;;;15.60;97.20;;;;;;5113926;28;20044;-72
2022/06/14 07:47:54;;;;;;;6.10;2.20;;;15.60;98.30;;;;;;5113965;28;20054;-72
2022/06/14 07:50:28;;;;;;;12.05;3.30;;;15.80;97.00;;;;;;4999462;28;20107;-72
2022/06/14 07:53:05;;;;;;;8.18;2.53;;;15.60;97.70;;;;;;5098482;28;20140;-70
2022/06/14 07:55:45;;;;;;;6.80;1.98;;;16.00;97.70;;;;;;5113552;28;20507;-70
2022/06/14 07:58:52;;;;;;;9.82;2.40;;;16.00;97.30;;;;;;5113880;28;20136;-70
2022/06/14 08:01:24;;;;;;;6.40;2.08;;;16.20;96.90;;;;;;5058340;28;20051;-70
2022/06/14 08:03:59;;;;;;;4.97;1.73;;;16.20;96.70;;;;;;5113763;28;20391;-69
2022/06/14 08:06:31;;;;;;;4.95;2.03;;;16.30;96.60;;;;;;5113716;28;20487;-69
2022/06/14 08:09:14;;;;;;;6.35;2.55;;;16.20;97.10;;;;;;5113634;28;20060;-70
2022/06/14 08:11:54;;;;;;;6.88;2.30;;;16.50;96.90;;;;;;5113298;28;20070;-70
2022/06/14 08:14:39;;;;;;;6.95;2.05;;;16.50;97.10;;;;;;5096555;28;20042;-70
2022/06/14 08:17:08;;;;;;;9.60;2.15;;;16.70;96.70;;;;;;5096231;28;20046;-70
2022/06/14 08:19:50;;;;;;;5.78;2.08;;;16.70;96.90;;;;;;5113327;28;20044;-70
2022/06/14 08:22:20;;;;;;;;;;;16.50;97.10;;;;;;5113659;28;20043;-70
2022/06/14 08:24:52;;;;;;;6.53;1.92;;;16.60;96.70;;;;;;5114439;28;19994;-70
2022/06/14 08:27:34;;;;;;;4.88;2.05;;;16.40;96.70;;;;;;5113081;28;20044;-70
2022/06/14 08:30:10;;;;;;;12.73;2.13;;;15.90;99.80;;;;;;5096422;28;20046;-70
2022/06/14 08:32:58;;;;;;;9.50;2.05;;;16.30;96.90;;;;;;5096098;28;20103;-70
2022/06/14 08:35:45;;;;;;;5.07;1.95;;;16.60;95.90;;;;;;5113144;28;20035;-70
2022/06/14 08:38:16;;;;;;;10.38;2.20;;;16.40;96.60;;;;;;5112875;28;20032;-70
2022/06/14 08:41:09;;;;;;;8.70;2.17;;;16.60;96.80;;;;;;5095923;28;20043;-70
2022/06/14 08:43:49;;;;;;;9.05;2.30;;;16.40;96.60;;;;;;5112835;28;20084;-70
2022/06/14 08:46:26;;;;;;;7.13;2.60;;;16.60;96.80;;;;;;5112711;28;20535;-70
2022/06/14 08:49:19;;;;;;;10.95;2.20;;;16.10;99.80;;;;;;5112800;28;20039;-70
2022/06/14 08:52:21;;;;;;;7.15;1.98;;;16.70;96.60;;;;;;5095189;28;20055;-70
2022/06/14 08:55:15;;;;;;;2.47;1.63;;;16.50;96.40;;;;;;5112788;28;20150;-70
2022/06/14 08:58:08;;;;;;;5.07;1.65;;;17.00;96.30;;;;;;5112694;28;20365;-70
2022/06/14 09:01:03;;;;;;;6.03;2.03;;;17.70;99.60;;;;;;5112893;28;20106;-70
2022/06/14 09:03:38;;;;;;;6.97;2.20;;;;;;;;;;5082422;28;20131;-72
2022/06/14 09:06:28;;;;;;;7.68;2.08;;;17.30;95.40;;;;;;5112461;28;20092;-70
2022/06/14 09:08:54;;;;;;;5.82;2.33;;;;;;;;;;5112543;28;20036;-70
2022/06/14 09:11:29;;;;;;;12.02;2.35;;;;;;;;;;5112221;28;20056;-71
2022/06/14 09:14:12;;;;;;;8.95;2.95;;;16.80;98.00;;;;;;5112308;28;20051;-70
2022/06/14 09:16:39;;;;;;;9.23;2.42;;;;;;;;;;5112572;28;20058;-70
2022/06/14 09:19:20;;;;;;;5.97;2.13;;;17.50;94.80;;;;;;5112283;28;20047;-71
2022/06/14 09:22:04;;;;;;;8.38;2.38;;;;;;;;;;5112342;28;20541;-71
2022/06/14 09:24:49;;;;;;;7.10;2.40;;;17.70;97.70;;;;;;5095170;28;20036;-71
2022/06/14 09:27:48;;;;;;;3.95;2.05;;;17.20;94.30;;;;;;5112305;28;20050;-71
2022/06/14 09:30:33;;;;;;;7.03;2.58;;;17.20;93.50;;;;;;5112202;28;20044;-70
2022/06/14 09:33:13;;;;;;;10.13;3.17;;;;;;;;;;5112453;28;20476;-71
2022/06/14 09:35:42;;;;;;;8.23;2.20;;;18.00;97.80;;;;;;5112144;28;20050;-70
2022/06/14 09:38:38;;;;;;;7.57;2.50;;;18.00;94.50;;;;;;5112192;28;20130;-71
2022/06/14 09:41:53;;;;;;;8.30;2.58;;;18.10;93.40;;;;;;5112244;28;20044;-71
2022/06/14 09:44:37;;;;;;;5.65;2.50;;;17.60;97.30;;;;;;5112038;28;20040;-70
2022/06/14 09:47:25;;;;;;;8.95;2.45;;;18.00;97.50;;;;;;5095074;28;20487;-71
2022/06/14 09:50:12;;;;;;;4.57;2.20;;;17.40;92.70;;;;;;5112349;28;20373;-70
2022/06/14 09:52:56;;;;;;;5.18;1.83;;;17.30;94.10;;;;;;5111814;28;20057;-70
2022/06/14 09:55:24;;;;;;;6.78;2.72;;;18.30;97.30;;;;;;5111986;28;20391;-71
2022/06/14 09:58:13;;;;;;;5.43;2.17;;;18.20;93.40;;;;;;5112121;28;20082;-71
2022/06/14 10:00:57;;;;;;;7.95;2.40;;;18.10;96.90;;;;;;5112137;28;20449;-71
2022/06/14 10:03:37;;;;;;;5.00;2.30;;;17.80;92.50;;;;;;5113470;28;20036;-71
2022/06/14 10:06:22;;;;;;;6.40;2.38;;;17.10;96.50;;;;;;5115917;28;20049;-71
2022/06/14 10:09:01;;;;;;;4.68;2.17;;;;;;;;;;5115734;28;20081;-71
2022/06/14 10:11:42;;;;;;;4.28;2.28;;;19.20;92.70;;;;;;5115362;28;20066;-70
2022/06/14 10:14:22;;;;;;;7.38;2.40;;;18.60;95.40;;;;;;5115998;28;20395;-71
2022/06/14 10:17:28;;;;;;;7.22;3.00;;;18.80;92.00;;;;;;5115699;28;20039;-71
2022/06/14 10:20:00;;;;;;;5.70;2.90;;;19.30;92.00;;;;;;5078910;28;20116;-71
2022/06/14 10:22:51;;;;;;;11.95;3.30;;;18.60;92.30;;;;;;5115554;28;20071;-71
2022/06/14 10:25:17;;;;;;;12.57;3.10;;;;;;;;;;5115432;28;20043;-71
2022/06/14 10:28:14;;;;;;;8.63;3.17;;;19.00;95.90;;;;;;5115622;28;20096;-71
2022/06/14 10:30:58;;;;;;;8.55;3.30;;;17.90;95.50;;;;;;5115595;28;20116;-71
2022/06/14 10:33:50;;;;;;;4.45;2.13;;;18.50;91.00;;;;;;5098510;28;20039;-71
2022/06/14 10:36:52;;;;;;;6.07;2.28;;;19.20;95.60;;;;;;5115678;28;20036;-71
2022/06/14 10:39:50;;;;;;;8.32;2.45;;;17.60;95.20;;;;;;5115541;28;20044;-71
2022/06/14 10:42:46;;;;;;;3.85;2.65;;;18.30;90.90;;;;;;5098433;28;20220;-71
2022/06/14 10:45:29;;;;;;;9.10;2.75;;;17.60;95.30;;;;;;5098351;28;20061;-70
2022/06/14 10:48:23;;;;;;;8.38;2.58;;;18.10;91.20;;;;;;5115375;28;20070;-70
2022/06/14 10:51:12;;;;;;;7.25;2.60;;;18.20;91.40;;;;;;5115137;28;20395;-70
2022/06/14 10:53:38;;;;;;;12.07;2.80;;;;;;;;;;5114842;28;20035;-70
2022/06/14 10:56:22;;;;;;;6.95;2.60;;;17.20;94.80;;;;;;5098258;28;20042;-70
2022/06/14 10:59:18;;;;;;;9.52;2.22;;;18.60;94.70;;;;;;5115074;28;20031;-70
2022/06/14 11:01:44;;;;;;;5.70;2.40;;;;;;;;;;5115080;28;20491;-70
2022/06/14 11:04:43;;;;;;;6.38;2.50;;;18.20;91.00;;;;;;5114778;28;20046;-70
2022/06/14 11:07:29;;;;;;;9.80;2.33;;;17.00;95.30;;;;;;5097774;28;20131;-70
2022/06/14 11:10:10;;;;;;;5.65;2.47;;;17.20;95.40;;;;;;5114827;28;20121;-70
2022/06/14 11:12:38;;;;;;;8.98;2.50;;;18.10;95.80;;;;;;5097471;28;20484;-71
2022/06/14 11:15:18;;;;;;;8.25;2.60;;;18.50;95.80;;;;;;5096680;28;20511;-70
2022/06/14 11:18:23;;;;;;;8.73;2.70;;;18.20;91.50;;;;;;5097268;28;20036;-70
2022/06/14 11:21:14;;;;;;;10.65;2.47;;;18.50;91.20;;;;;;5114343;28;20042;-70
2022/06/14 11:23:40;;;;;;;9.23;3.13;;;;;;;;;;5097320;28;20368;-70
2022/06/14 11:26:09;;;;;;;5.50;2.40;;;18.70;91.80;;;;;;5114268;28;20039;-71
2022/06/14 11:28:36;;;;;;;13.02;2.90;;;;;;;;;;5114514;28;20055;-70
2022/06/14 11:31:17;;;;;;;10.32;2.95;;;17.60;95.10;;;;;;5114093;28;20051;-70
2022/06/14 11:34:05;;;;;;;7.88;2.72;;;18.90;95.20;;;;;;5114174;28;20035;-70
2022/06/14 11:36:53;;;;;;;6.10;2.65;;;19.20;95.70;;;;;;5114088;28;20035;-71
2022/06/14 11:39:34;;;;;;;6.43;2.90;;;18.50;91.60;;;;;;5114361;28;20113;-70
2022/06/14 11:42:26;;;;;;;8.82;2.55;;;18.00;92.20;;;;;;5114330;28;20039;-70
2022/06/14 11:45:09;;;;;;;7.68;2.38;;;18.20;90.90;;;;;;5102916;28;20058;-71
2022/06/14 11:48:04;;;;;;;13.30;2.80;;;18.30;93.80;;;;;;5113749;28;20047;-71
2022/06/14 11:50:50;;;;;;;10.35;2.95;;;17.20;95.40;;;;;;5113835;28;20051;-71
2022/06/14 11:53:31;;;;;;;6.70;2.72;;;18.10;91.10;;;;;;5096801;28;20096;-70
2022/06/14 11:55:57;;;;;;;6.88;3.08;;;;;;;;;;5114015;28;20054;-71
2022/06/14 11:59:07;;;;;;;9.57;2.75;;;17.30;95.10;;;;;;5113957;28;20483;-71
2022/06/14 12:02:00;;;;;;;7.20;2.80;;;18.20;95.30;;;;;;5109061;28;20047;-71
2022/06/14 12:04:53;;;;;;;11.05;3.05;;;17.60;95.20;;;;;;5113949;28;20126;-71
2022/06/14 12:07:24;;;;;;;;;;;18.30;92.40;;;;;;5113907;28;20035;-71
2022/06/14 12:10:41;;;;;;;12.68;3.40;;;18.20;92.30;;;;;;5116309;27;19934;-71
2022/06/14 12:13:07;;;;;;;6.78;3.00;;;;;;;;;;5057699;27;20051;-71
2022/06/14 12:16:03;;;;;;;8.00;3.50;;;18.60;95.40;;;;;;5116888;27;20031;-70
2022/06/14 12:18:32;;;;;;;12.10;3.53;;;17.40;95.00;;;;;;5116836;27;20043;-70
2022/06/14 12:21:05;;;;;;;8.73;3.35;;;18.70;91.10;;;;;;5116921;27;20436;-70
2022/06/14 12:23:41;;;;;;;8.13;3.50;;;19.30;95.60;;;;;;5116553;27;20047;-71
2022/06/14 12:29:34;;;;;;;10.65;2.88;;;18.10;95.20;;;;;;5116276;27;20047;-70
2022/06/14 12:32:32;;;;;;;7.30;2.60;;;18.60;95.20;;;;;;5116547;27;20406;-70
2022/06/14 12:35:07;;;;;;;11.48;3.10;;;19.70;91.10;;;;;;5116750;27;20479;-70
2022/06/14 12:37:53;;;;;;;7.65;2.63;;;19.50;94.60;;;;;;5116297;27;20070;-70
2022/06/14 12:40:51;;;;;;;8.85;3.15;;;19.20;94.10;;;;;;5116542;27;20031;-70
2022/06/14 12:43:24;;;;;;;7.70;3.33;;;20.10;94.40;;;;;;5116453;27;20061;-71
2022/06/14 12:45:50;;;;;;;9.98;3.90;;;;;;;;;;5116224;27;20395;-71
2022/06/14 12:48:39;;;;;;;9.52;3.42;;;18.60;92.20;;;;;;5116279;27;20039;-71
2022/06/14 12:51:22;;;;;;;7.65;3.30;;;19.30;94.30;;;;;;5116468;27;20394;-72
2022/06/14 12:54:00;;;;;;;10.18;3.30;;;19.80;92.80;;;;;;5099242;27;20487;-72
2022/06/14 12:56:48;;;;;;;7.50;4.22;;;20.10;94.40;;;;;;5116022;27;20096;-71
2022/06/14 12:59:29;;;;;;;8.82;2.88;;;19.60;94.30;;;;;;5116088;27;20035;-71
2022/06/14 13:02:20;;;;;;;8.38;3.10;;;20.10;94.30;;;;;;5116017;28;20567;-72
2022/06/14 13:04:46;;;;;;;12.23;3.95;;;;;;;;;;5116224;27;20046;-71
2022/06/14 13:07:30;;;;;;;6.65;3.38;;;19.80;93.80;;;;;;5116038;27;20045;-72
2022/06/14 13:10:31;;;;;;;11.07;3.63;;;18.50;93.90;;;;;;5115606;27;20060;-72
2022/06/14 13:13:27;;;;;;;10.07;2.90;;;19.70;94.30;;;;;;5115755;27;20055;-71
2022/06/14 13:16:05;;;;;;;7.93;3.83;;;19.60;91.00;;;;;;5116157;28;20062;-71
2022/06/14 13:18:49;;;;;;;13.15;3.28;;;19.40;93.40;;;;;;5098822;28;20047;-72
2022/06/14 13:21:45;;;;;;;10.40;3.20;;;18.30;93.30;;;;;;5116136;28;20062;-71
2022/06/14 13:24:24;;;;;;;10.40;3.40;;;20.10;93.70;;;;;;5115653;28;20074;-71
2022/06/14 13:27:15;;;;;;;10.48;3.53;;;19.70;93.40;;;;;;5098907;28;20130;-71
2022/06/14 13:30:05;;;;;;;7.53;3.60;;;19.20;90.60;;;;;;5115679;28;20045;-71
2022/06/14 13:32:31;;;;;;;11.23;3.80;;;;;;;;;;5115725;28;20505;-71
2022/06/14 13:35:18;;;;;;;7.53;3.70;;;19.30;86.90;;;;;;5115681;28;20078;-71
2022/06/14 13:37:53;;;;;;;8.13;3.30;;;19.30;86.70;;;;;;5115711;27;20049;-70
2022/06/14 13:40:43;;;;;;;7.50;3.22;;;19.80;93.30;;;;;;5102608;27;20031;-71
2022/06/14 13:43:33;;;;;;;6.93;3.47;;;19.10;93.10;;;;;;5119627;27;20088;-70
2022/06/14 13:46:23;;;;;;;10.38;3.72;;;19.60;89.00;;;;;;5102521;27;20046;-71
2022/06/14 13:48:57;;;;;;;11.10;4.38;;;19.40;86.40;;;;;;5119555;27;20031;-71
2022/06/14 13:51:41;;;;;;;5.88;3.05;;;18.50;92.30;;;;;;5119493;27;20039;-71
2022/06/14 13:54:36;;;;;;;7.80;3.50;;;19.40;85.70;;;;;;5119549;27;20031;-70
2022/06/14 13:57:36;;;;;;;8.85;3.20;;;19.90;92.90;;;;;;5102312;27;20112;-70
2022/06/14 14:00:29;;;;;;;5.43;3.30;;;20.20;90.40;;;;;;5119659;27;20111;-71
2022/06/14 14:03:19;;;;;;;8.13;2.70;;;20.90;84.40;;;;;;5119340;27;20121;-71
2022/06/14 14:05:52;;;;;;;8.23;3.70;;;20.90;82.70;;;;;;5119390;27;20039;-71
2022/06/14 14:08:55;;;;;;;5.78;3.05;;;20.10;91.00;;;;;;5119523;27;20506;-71
2022/06/14 14:11:21;;;;;;;8.65;3.20;;;21.30;91.40;;;;;;5119198;27;20070;-71
2022/06/14 14:13:54;;;;;;;7.72;2.88;;;20.80;84.50;;;;;;5119231;27;20483;-71
2022/06/14 14:16:38;;;;;;;8.95;3.33;;;21.10;91.30;;;;;;5119470;27;20372;-71
2022/06/14 14:19:31;;;;;;;9.88;3.42;;;20.70;91.20;;;;;;5102268;27;20123;-71
2022/06/14 14:22:29;;;;;;;7.10;3.20;;;21.20;91.40;;;;;;5101941;27;20176;-71